Gulf — V2BB5 — position and weather

sailwx.info

Track history (hours):
 
Tides and Currents Weather Stations Pressure Air Temp Water Temp Dewpoint Dewpoint Depression Visibility Wind Speed Wind Dir Waves Ship Positions

Gulf

Last reported at 2014-Jul-09 01:19 UTC. Time now 2014-Jul-26 17:15 UTC.
Position N 36°57' E 003°18'.
Warning: this ship's position is 17 days out of date.

Length 96 m; draft 5.6 m.

Type: Cargo ship. MMSI: 304320000.

Date/timePositionNaut miles runAvg speedWind from/ knotsBaromVisibWave heightAir tempDewpointWater temp
2014-Jul-09 01:19N 36°57' E 003°18'8 7.9
2014-Jul-09 00:19N 36°57' E 003°28'6 8.1
2014-Jul-08 23:32N 36°58' E 003°35'8 7.2
2014-Jul-08 22:28N 36°59' E 003°45'252 7.6
2014-Jul-07 13:26N 37°25' E 008°59'7 7.8
2014-Jul-07 12:33N 37°27' E 009°08'8 7.9
2014-Jul-07 11:29N 37°29' E 009°18'7 7.9
2014-Jul-07 10:33N 37°31' E 009°27'8 8.0
2014-Jul-07 09:33N 37°33' E 009°36'8 8.0
2014-Jul-07 08:33N 37°35' E 009°46'8 7.5
2014-Jul-07 07:33N 37°38' E 009°55'11 7.4
2014-Jul-07 06:04N 37°39' E 010°09'20 7.7
2014-Jul-07 03:24N 37°35' E 010°34'7 8.2
2014-Jul-07 02:31N 37°33' E 010°43'8 8.0
2014-Jul-07 01:30N 37°31' E 010°53'8 8.2
2014-Jul-07 00:33N 37°29' E 011°03'9 8.6
2014-Jul-06 23:28N 37°26' E 011°14'8 8.7
2014-Jul-06 22:33N 37°23' E 011°23'9 8.7
2014-Jul-06 21:33N 37°19' E 011°33'12 8.4
2014-Jul-06 20:09N 37°17' E 011°47'7 8.4
2014-Jul-06 19:15N 37°15' E 011°56'55 8.2
2014-Jul-06 12:33N 37°01' E 013°03'8 8.5
2014-Jul-06 11:34N 36°58' E 013°13'8 8.4
2014-Jul-06 10:33N 36°56' E 013°23'9 8.5
2014-Jul-06 09:34N 36°54' E 013°33'9 8.8
2014-Jul-06 08:34N 36°51' E 013°44'9 8.8
2014-Jul-06 07:34N 36°49' E 013°54'9 9.1
2014-Jul-06 06:34N 36°47' E 014°05'9 9.0
2014-Jul-06 05:33N 36°44' E 014°16'9 8.6
2014-Jul-06 04:33N 36°42' E 014°27'9 8.1
2014-Jul-06 03:28N 36°40' E 014°37'7 7.8
2014-Jul-06 02:34N 36°38' E 014°46'8 7.7
2014-Jul-06 01:34N 36°36' E 014°55'8 7.7
2014-Jul-06 00:33N 36°35' E 015°04'  
2014-Jul-03 10:13N 36°54' E 024°14'6 9.1
2014-Jul-03 09:33N 36°57' E 024°20'12 8.8
2014-Jul-03 08:10N 37°05' E 024°32'5 8.6
2014-Jul-03 07:33N 37°08' E 024°37'9 8.6
2014-Jul-03 06:33N 37°13' E 024°46'9 9.0
2014-Jul-03 05:32N 37°19' E 024°55'7 7.3
2014-Jul-03 04:33N 37°25' E 024°60'1 1.1
2014-Jul-03 03:33N 37°25' E 024°58'0 0.0
2014-Jul-03 02:30N 37°25' E 024°58'0 0.2
2014-Jul-03 01:33N 37°25' E 024°59'7 6.6
2014-Jul-03 00:32N 37°32' E 024°58'77 7.7
2014-Jul-02 14:27N 38°48' E 025°09'  
Track history (hours):
 
Tides and Currents Weather Stations Pressure Air Temp Water Temp Dewpoint Dewpoint Depression Visibility Wind Speed Wind Dir Waves Ship Positions

Gulf

Last reported at 2014-Jul-09 01:19 UTC. Time now 2014-Jul-26 17:15 UTC.
Position N 36°57' E 003°18'.
Warning: this ship's position is 17 days out of date.

Length 96 m; draft 5.6 m.

Type: Cargo ship. MMSI: 304320000.

Date/timePositionNaut miles runAvg speedWind from/ knotsBaromVisibWave heightAir tempDewpointWater temp
2014-Jul-09 01:19N 36°57' E 003°18'8 7.9
2014-Jul-09 00:19N 36°57' E 003°28'6 8.1
2014-Jul-08 23:32N 36°58' E 003°35'8 7.2
2014-Jul-08 22:28N 36°59' E 003°45'252 7.6
2014-Jul-07 13:26N 37°25' E 008°59'7 7.8
2014-Jul-07 12:33N 37°27' E 009°08'8 7.9
2014-Jul-07 11:29N 37°29' E 009°18'7 7.9
2014-Jul-07 10:33N 37°31' E 009°27'8 8.0
2014-Jul-07 09:33N 37°33' E 009°36'8 8.0
2014-Jul-07 08:33N 37°35' E 009°46'8 7.5
2014-Jul-07 07:33N 37°38' E 009°55'11 7.4
2014-Jul-07 06:04N 37°39' E 010°09'20 7.7
2014-Jul-07 03:24N 37°35' E 010°34'7 8.2
2014-Jul-07 02:31N 37°33' E 010°43'8 8.0
2014-Jul-07 01:30N 37°31' E 010°53'8 8.2
2014-Jul-07 00:33N 37°29' E 011°03'9 8.6
2014-Jul-06 23:28N 37°26' E 011°14'8 8.7
2014-Jul-06 22:33N 37°23' E 011°23'9 8.7
2014-Jul-06 21:33N 37°19' E 011°33'12 8.4
2014-Jul-06 20:09N 37°17' E 011°47'7 8.4
2014-Jul-06 19:15N 37°15' E 011°56'55 8.2
2014-Jul-06 12:33N 37°01' E 013°03'8 8.5
2014-Jul-06 11:34N 36°58' E 013°13'8 8.4
2014-Jul-06 10:33N 36°56' E 013°23'9 8.5
2014-Jul-06 09:34N 36°54' E 013°33'9 8.8
2014-Jul-06 08:34N 36°51' E 013°44'9 8.8
2014-Jul-06 07:34N 36°49' E 013°54'9 9.1
2014-Jul-06 06:34N 36°47' E 014°05'9 9.0
2014-Jul-06 05:33N 36°44' E 014°16'9 8.6
2014-Jul-06 04:33N 36°42' E 014°27'9 8.1
2014-Jul-06 03:28N 36°40' E 014°37'7 7.8
2014-Jul-06 02:34N 36°38' E 014°46'8 7.7
2014-Jul-06 01:34N 36°36' E 014°55'8 7.7
2014-Jul-06 00:33N 36°35' E 015°04'  
2014-Jul-03 10:13N 36°54' E 024°14'6 9.1
2014-Jul-03 09:33N 36°57' E 024°20'12 8.8
2014-Jul-03 08:10N 37°05' E 024°32'5 8.6
2014-Jul-03 07:33N 37°08' E 024°37'9 8.6
2014-Jul-03 06:33N 37°13' E 024°46'9 9.0
2014-Jul-03 05:32N 37°19' E 024°55'7 7.3
2014-Jul-03 04:33N 37°25' E 024°60'1 1.1
2014-Jul-03 03:33N 37°25' E 024°58'0 0.0
2014-Jul-03 02:30N 37°25' E 024°58'0 0.2
2014-Jul-03 01:33N 37°25' E 024°59'7 6.6
2014-Jul-03 00:32N 37°32' E 024°58'77 7.7
2014-Jul-02 14:27N 38°48' E 025°09'  

Dump ship's entire track history